Time;durP1;ratioP1;P1;durP2;ratioP2;P2;SDS_P1;SDS_P2;PMS_P1;PMS_P2;Temp;Humidity;BMP_temperature;BMP_pressure;BME280_temperature;BME280_humidity;BME280_pressure;Samples;Min_cycle;Max_cycle;Signal;HPM_P1;HPM_P2
2022/04/12 04:45:09;;;;;;;16.80;15.50;;;6.50;99.90;;;;;;6190304;22;20473;-71
2022/04/12 04:47:49;;;;;;;18.77;17.47;;;6.50;99.90;;;;;;6182145;23;20782;-72
2022/04/12 04:50:16;;;;;;;20.83;19.00;;;6.40;99.90;;;;;;6182503;23;20394;-72
2022/04/12 04:52:43;;;;;;;22.13;19.80;;;6.40;99.90;;;;;;6182540;23;20418;-72
2022/04/12 04:55:10;;;;;;;18.90;17.20;;;6.40;99.90;;;;;;6182685;23;20863;-71
2022/04/12 04:57:39;;;;;;;19.40;17.50;;;6.40;99.90;;;;;;6182281;23;20917;-71
2022/04/12 05:00:06;;;;;;;19.03;17.20;;;6.40;99.90;;;;;;6178072;23;20447;-72
2022/04/12 05:02:33;;;;;;;18.13;16.43;;;6.50;99.90;;;;;;6208788;23;20490;-73
2022/04/12 05:05:02;;;;;;;21.13;19.00;;;6.50;99.90;;;;;;6208781;23;20947;-73
2022/04/12 05:07:29;;;;;;;18.93;17.43;;;6.50;99.90;;;;;;6209469;23;20773;-73
2022/04/12 05:09:55;;;;;;;20.07;18.13;;;6.60;99.90;;;;;;6213099;23;20402;-72
2022/04/12 05:12:22;;;;;;;19.90;17.90;;;6.60;99.90;;;;;;6213084;23;20395;-72
2022/04/12 05:14:49;;;;;;;18.77;17.37;;;6.60;99.90;;;;;;6212424;23;20405;-72
2022/04/12 05:17:23;;;;;;;19.50;18.00;;;6.60;99.90;;;;;;6212506;23;20410;-73
2022/04/12 05:19:50;;;;;;;22.20;17.60;;;6.60;99.90;;;;;;6213011;23;20393;-75
2022/04/12 05:22:18;;;;;;;20.60;18.77;;;6.60;99.90;;;;;;6212248;23;20451;-74
2022/04/12 05:24:45;;;;;;;20.13;18.57;;;6.70;99.90;;;;;;6212824;23;20409;-72
2022/04/12 05:27:12;;;;;;;22.57;19.90;;;6.80;99.90;;;;;;6213127;23;20412;-73
2022/04/12 05:29:39;;;;;;;19.20;17.40;;;6.80;99.90;;;;;;6213046;23;20418;-73
2022/04/12 05:32:06;;;;;;;20.57;17.63;;;6.80;99.90;;;;;;6212877;23;20427;-73
2022/04/12 05:34:33;;;;;;;20.90;18.93;;;6.90;99.90;;;;;;6212953;23;20416;-72
2022/04/12 05:37:00;;;;;;;20.60;18.90;;;7.00;99.90;;;;;;6212684;23;20412;-72
2022/04/12 05:39:28;;;;;;;18.13;16.43;;;7.30;99.90;;;;;;6212875;23;20409;-72
2022/04/12 05:41:54;;;;;;;18.90;17.50;;;7.70;99.90;;;;;;6212775;23;20444;-74
2022/04/12 05:44:21;;;;;;;17.83;16.40;;;8.10;99.90;;;;;;6212156;23;20431;-71
2022/04/12 05:46:48;;;;;;;18.20;16.37;;;8.50;99.90;;;;;;6212231;23;20440;-74
2022/04/12 05:49:14;;;;;;;19.00;17.43;;;8.90;99.90;;;;;;6212105;23;20459;-73
2022/04/12 05:51:41;;;;;;;17.80;16.27;;;9.30;99.90;;;;;;6212546;23;20431;-73
2022/04/12 05:54:08;;;;;;;18.13;15.70;;;9.40;99.90;;;;;;6212822;23;20413;-73
2022/04/12 05:56:36;;;;;;;18.17;16.40;;;9.40;99.90;;;;;;6212490;23;20478;-73
2022/04/12 05:59:02;;;;;;;16.83;15.63;;;9.30;99.90;;;;;;6212085;23;20409;-73
2022/04/12 06:01:29;;;;;;;16.17;14.87;;;9.30;99.90;;;;;;6212255;23;20444;-73
2022/04/12 06:03:57;;;;;;;17.70;16.33;;;9.30;99.90;;;;;;6212836;23;20413;-75
2022/04/12 06:06:24;;;;;;;17.23;15.93;;;9.30;99.90;;;;;;6211014;23;20479;-76
2022/04/12 06:08:50;;;;;;;18.57;16.60;;;9.30;99.90;;;;;;6211964;23;20935;-75
2022/04/12 06:11:17;;;;;;;17.70;15.90;;;9.40;99.90;;;;;;6211655;23;20405;-74
2022/04/12 06:13:45;;;;;;;17.37;15.97;;;9.60;99.90;;;;;;6212420;23;20416;-75
2022/04/12 06:16:12;;;;;;;15.67;14.50;;;10.00;99.90;;;;;;6212787;23;20415;-75
2022/04/12 06:18:39;;;;;;;17.83;16.13;;;10.40;99.90;;;;;;6212670;23;20417;-75
2022/04/12 06:21:06;;;;;;;16.43;15.03;;;10.80;99.90;;;;;;6211940;23;20448;-75
2022/04/12 06:23:33;;;;;;;17.70;16.30;;;11.20;99.90;;;;;;6211947;23;20425;-75
2022/04/12 06:25:59;;;;;;;15.77;14.60;;;11.50;99.90;;;;;;6212217;23;20488;-76
2022/04/12 06:28:26;;;;;;;14.93;13.93;;;11.40;99.90;;;;;;6212603;23;20408;-77
2022/04/12 06:30:55;;;;;;;15.97;14.77;;;11.30;99.90;;;;;;6212319;23;20421;-77
2022/04/12 06:33:21;;;;;;;14.57;13.67;;;11.30;99.90;;;;;;6211990;23;20416;-76
2022/04/12 06:35:48;;;;;;;16.43;15.00;;;11.20;99.90;;;;;;6211763;23;20912;-76
2022/04/12 06:38:15;;;;;;;16.27;15.13;;;11.00;99.90;;;;;;6211874;23;20412;-77
2022/04/12 06:40:44;;;;;;;17.20;15.80;;;11.10;99.90;;;;;;6212397;23;20420;-75
2022/04/12 06:43:12;;;;;;;17.70;16.50;;;11.20;99.90;;;;;;6211881;23;20427;-76
2022/04/12 06:45:38;;;;;;;16.87;15.67;;;11.20;99.90;;;;;;6212395;23;20698;-77
2022/04/12 06:48:07;;;;;;;16.40;15.20;;;11.30;99.90;;;;;;6212215;23;20397;-77
2022/04/12 06:50:34;;;;;;;15.70;14.70;;;11.20;99.90;;;;;;6212078;23;20413;-76
2022/04/12 06:53:03;;;;;;;15.07;13.97;;;11.30;99.90;;;;;;6212184;23;20409;-76
2022/04/12 06:55:30;;;;;;;14.80;13.80;;;11.50;99.90;;;;;;6211795;23;20758;-77
2022/04/12 06:57:57;;;;;;;15.73;14.53;;;11.80;99.90;;;;;;6212101;23;20400;-76
2022/04/12 07:00:25;;;;;;;16.33;15.20;;;12.20;99.90;;;;;;6212238;23;20419;-76
2022/04/12 07:02:52;;;;;;;17.00;15.50;;;12.40;99.30;;;;;;6212406;23;20443;-77
2022/04/12 07:05:20;;;;;;;18.30;16.07;;;12.70;98.40;;;;;;6211286;23;20611;-77
2022/04/12 07:07:47;;;;;;;16.07;14.97;;;12.90;98.00;;;;;;6211758;23;20415;-77
2022/04/12 07:10:15;;;;;;;16.70;15.50;;;12.90;97.60;;;;;;6212135;23;20413;-76
2022/04/12 07:12:42;;;;;;;17.23;16.03;;;12.80;97.80;;;;;;6211997;23;20740;-76
2022/04/12 07:15:10;;;;;;;16.37;15.37;;;12.60;97.90;;;;;;6212038;23;20736;-76
2022/04/12 07:17:37;;;;;;;17.47;15.97;;;12.60;98.30;;;;;;6212032;23;20486;-76
2022/04/12 07:20:05;;;;;;;15.90;14.70;;;12.70;97.90;;;;;;6211505;23;20409;-77
2022/04/12 07:22:33;;;;;;;18.60;16.93;;;12.80;97.90;;;;;;6211947;23;20452;-78
2022/04/12 07:25:00;;;;;;;16.50;15.40;;;13.20;97.40;;;;;;6211970;23;20409;-78
2022/04/12 07:27:27;;;;;;;17.80;16.40;;;13.50;97.40;;;;;;6212336;23;20408;-79
2022/04/12 07:29:54;;;;;;;17.57;16.40;;;13.90;96.40;;;;;;6212191;23;20916;-76
2022/04/12 07:32:20;;;;;;;18.10;16.53;;;13.90;95.90;;;;;;6211471;23;20412;-76
2022/04/12 07:34:47;;;;;;;17.93;16.73;;;13.80;96.10;;;;;;6211413;23;20416;-76
2022/04/12 07:37:14;;;;;;;18.83;17.43;;;13.90;95.60;;;;;;6211384;23;20415;-76
2022/04/12 07:39:42;;;;;;;17.73;16.40;;;13.80;95.90;;;;;;6212169;23;20412;-77
2022/04/12 07:42:09;;;;;;;16.43;15.43;;;13.80;96.00;;;;;;6211942;23;20440;-76
2022/04/12 07:44:35;;;;;;;18.27;16.57;;;13.80;95.60;;;;;;6211993;23;20415;-76
2022/04/12 07:47:02;;;;;;;17.60;16.20;;;13.90;95.80;;;;;;6213211;23;20436;-79
2022/04/12 07:49:29;;;;;;;17.20;15.80;;;14.30;95.30;;;;;;6213412;23;20439;-78
2022/04/12 07:51:55;;;;;;;18.70;17.20;;;14.60;94.20;;;;;;6212888;23;20931;-77
2022/04/12 07:54:22;;;;;;;16.83;15.83;;;14.60;94.30;;;;;;6214026;23;20850;-77
2022/04/12 07:56:50;;;;;;;17.93;16.60;;;14.90;94.00;;;;;;6213760;23;20424;-77
2022/04/12 07:59:17;;;;;;;17.97;16.70;;;15.40;93.20;;;;;;6214154;23;20820;-77
2022/04/12 08:01:44;;;;;;;19.00;17.70;;;15.50;92.40;;;;;;6213546;23;20811;-76
2022/04/12 08:04:10;;;;;;;17.70;16.50;;;15.50;92.30;;;;;;6211921;23;20467;-77
2022/04/12 08:06:38;;;;;;;18.83;17.63;;;15.80;92.30;;;;;;6213161;23;20911;-79
2022/04/12 08:09:05;;;;;;;20.10;18.70;;;16.30;91.70;;;;;;6213786;23;20447;-79
2022/04/12 08:11:32;;;;;;;19.20;17.90;;;16.80;90.50;;;;;;6213199;23;20961;-77
2022/04/12 08:14:00;;;;;;;18.57;17.37;;;17.20;90.10;;;;;;6213307;23;20423;-78
2022/04/12 08:16:26;;;;;;;19.43;18.13;;;18.10;86.30;;;;;;6213765;23;20417;-79
2022/04/12 08:18:54;;;;;;;19.37;18.03;;;18.60;84.40;;;;;;6213336;23;20468;-77
2022/04/12 08:21:34;;;;;;;19.33;18.10;;;18.80;81.10;;;;;;6213329;23;20467;-79
2022/04/12 08:24:01;;;;;;;18.30;17.20;;;18.80;81.10;;;;;;6213477;23;20397;-80
2022/04/12 08:26:28;;;;;;;18.80;17.43;;;18.90;78.90;;;;;;6213026;23;20923;-79
2022/04/12 08:28:55;;;;;;;19.63;18.27;;;18.80;78.70;;;;;;6213867;23;20404;-79
2022/04/12 08:31:23;;;;;;;20.57;19.23;;;18.70;79.20;;;;;;6213647;23;20405;-78
2022/04/12 08:33:51;;;;;;;18.53;17.40;;;18.60;80.70;;;;;;6210242;23;20492;-79
2022/04/12 08:36:20;;;;;;;18.40;17.20;;;19.00;79.40;;;;;;6214205;23;20409;-78
2022/04/12 08:38:49;;;;;;;17.23;16.20;;;18.90;78.30;;;;;;6214057;23;20405;-78
2022/04/12 08:41:16;;;;;;;18.00;16.70;;;18.90;79.40;;;;;;6213355;23;20932;-78
2022/04/12 08:43:43;;;;;;;18.30;16.90;;;18.60;78.90;;;;;;6214043;23;20425;-78
2022/04/12 08:46:12;;;;;;;18.10;16.97;;;18.60;79.70;;;;;;6213172;23;20436;-78
2022/04/12 08:48:41;;;;;;;18.20;16.93;;;18.70;79.40;;;;;;6213643;23;20455;-78
2022/04/12 08:51:08;;;;;;;17.57;16.67;;;19.00;78.10;;;;;;6213345;23;20432;-79
2022/04/12 08:53:35;;;;;;;18.83;17.13;;;19.30;77.80;;;;;;6213294;23;20440;-79
2022/04/12 08:56:02;;;;;;;17.77;16.63;;;19.60;77.20;;;;;;6210286;23;20417;-79
2022/04/12 08:58:29;;;;;;;18.47;16.70;;;19.70;75.60;;;;;;6213264;23;20389;-78
2022/04/12 09:00:56;;;;;;;17.73;16.53;;;19.90;75.80;;;;;;6212716;23;20415;-77
2022/04/12 09:03:23;;;;;;;16.37;15.47;;;20.20;74.30;;;;;;6212876;23;20951;-78
2022/04/12 09:05:52;;;;;;;17.30;16.17;;;20.50;70.20;;;;;;6213159;23;20420;-78
2022/04/12 09:08:29;;;;;;;18.07;16.87;;;20.60;68.20;;;;;;6213461;23;20408;-79
2022/04/12 09:10:58;;;;;;;16.60;15.57;;;21.30;67.40;;;;;;6212501;23;20389;-78
2022/04/12 09:13:25;;;;;;;16.43;15.53;;;22.00;66.10;;;;;;6212657;23;20404;-79
2022/04/12 09:15:51;;;;;;;15.97;14.97;;;22.30;63.20;;;;;;6212607;23;20416;-78
2022/04/12 09:18:32;;;;;;;17.80;16.40;;;22.10;62.50;;;;;;6212322;23;20404;-79
2022/04/12 09:21:15;;;;;;;16.80;15.80;;;21.60;63.50;;;;;;6212723;23;20930;-79
2022/04/12 09:23:43;;;;;;;18.67;16.97;;;21.40;64.30;;;;;;6212687;23;20939;-79
2022/04/12 09:26:16;;;;;;;17.27;16.13;;;21.40;65.30;;;;;;6213290;23;20439;-80
2022/04/12 09:28:43;;;;;;;20.13;16.17;;;21.40;64.70;;;;;;6213045;23;20416;-78
2022/04/12 09:31:14;;;;;;;17.20;16.10;;;21.90;63.50;;;;;;6212690;23;20467;-79
2022/04/12 09:33:42;;;;;;;16.53;15.23;;;22.50;61.40;;;;;;6212806;23;20407;-79
2022/04/12 09:36:11;;;;;;;15.83;15.03;;;23.40;58.60;;;;;;6213350;23;20416;-79
2022/04/12 09:38:39;;;;;;;17.47;16.33;;;24.40;54.30;;;;;;6212858;23;20412;-78
2022/04/12 09:41:12;;;;;;;15.17;14.47;;;25.00;54.80;;;;;;6213091;23;20723;-77
2022/04/12 09:43:42;;;;;;;15.50;14.70;;;25.40;52.40;;;;;;6213304;23;20449;-76
2022/04/12 09:46:14;;;;;;;16.97;15.80;;;25.40;49.70;;;;;;6212948;23;20444;-77
2022/04/12 09:48:46;;;;;;;15.10;14.40;;;24.70;50.40;;;;;;6212818;23;20959;-78
2022/04/12 09:51:15;;;;;;;15.60;14.90;;;24.40;49.70;;;;;;6212942;23;20393;-77
2022/04/12 09:53:45;;;;;;;14.00;13.30;;;24.10;50.40;;;;;;6212324;23;20428;-76
2022/04/12 09:56:22;;;;;;;17.20;16.20;;;24.00;49.60;;;;;;6212723;23;20419;-75
2022/04/12 09:58:50;;;;;;;17.03;15.93;;;24.20;49.70;;;;;;6212796;23;20764;-76
2022/04/12 10:01:18;;;;;;;14.67;13.97;;;24.30;49.90;;;;;;6212805;23;20412;-75
2022/04/12 10:03:47;;;;;;;14.80;14.00;;;24.00;48.80;;;;;;6212370;23;20437;-75
2022/04/12 10:06:18;;;;;;;15.63;14.80;;;24.60;49.80;;;;;;6212934;23;20413;-75
2022/04/12 10:08:47;;;;;;;15.80;14.80;;;25.40;48.30;;;;;;6212696;23;20397;-75
2022/04/12 10:11:14;;;;;;;15.33;14.53;;;25.90;47.10;;;;;;6212537;23;20416;-76
2022/04/12 10:13:42;;;;;;;15.20;14.20;;;26.00;45.80;;;;;;6213125;23;20404;-77
2022/04/12 10:16:10;;;;;;;15.50;14.43;;;25.30;47.70;;;;;;6212901;23;20943;-76
2022/04/12 10:18:37;;;;;;;15.37;14.10;;;24.90;47.80;;;;;;6212850;23;20884;-77
2022/04/12 10:21:04;;;;;;;14.13;13.33;;;25.10;48.10;;;;;;6212685;23;20405;-76
2022/04/12 10:23:35;;;;;;;14.50;13.57;;;25.20;47.00;;;;;;6212470;23;20433;-75
2022/04/12 10:26:02;;;;;;;15.17;14.47;;;25.60;46.30;;;;;;6212584;23;20522;-75
2022/04/12 10:28:30;;;;;;;14.97;14.17;;;25.50;46.00;;;;;;6212702;23;20412;-75
2022/04/12 10:31:18;;;;;;;14.80;14.00;;;25.60;46.30;;;;;;6212662;23;20441;-75
2022/04/12 10:33:51;;;;;;;14.80;13.90;;;25.40;45.50;;;;;;6212589;23;20463;-75
2022/04/12 10:36:18;;;;;;;15.27;14.30;;;25.80;46.00;;;;;;6212583;23;20393;-76
2022/04/12 10:38:46;;;;;;;14.60;13.67;;;26.10;45.10;;;;;;6212557;23;20815;-75
2022/04/12 10:41:16;;;;;;;14.07;13.30;;;26.50;45.60;;;;;;6212406;23;20407;-75
2022/04/12 10:43:43;;;;;;;14.10;13.40;;;27.40;44.50;;;;;;6212602;23;20503;-75
2022/04/12 10:46:12;;;;;;;14.40;13.60;;;27.80;43.10;;;;;;6212589;23;20445;-76
2022/04/12 10:48:39;;;;;;;13.63;12.93;;;27.30;42.60;;;;;;6212789;23;20463;-74
2022/04/12 10:51:07;;;;;;;13.97;13.27;;;27.20;42.80;;;;;;6212624;23;20407;-75
2022/04/12 10:53:55;;;;;;;13.80;13.00;;;27.50;41.90;;;;;;6212389;23;20743;-75
2022/04/12 10:56:25;;;;;;;14.07;13.27;;;27.20;41.50;;;;;;6212199;23;20452;-75
2022/04/12 10:58:52;;;;;;;14.17;13.47;;;27.30;42.10;;;;;;6212545;23;20408;-76
2022/04/12 11:01:30;;;;;;;14.10;13.30;;;27.40;41.50;;;;;;6212428;23;20417;-74
2022/04/12 11:03:57;;;;;;;13.80;12.90;;;27.50;42.00;;;;;;6212625;23;20437;-75
2022/04/12 11:06:25;;;;;;;13.33;12.73;;;27.80;40.70;;;;;;6212723;23;20432;-75
2022/04/12 11:08:53;;;;;;;13.60;12.93;;;27.90;40.00;;;;;;6212577;23;20413;-76
2022/04/12 11:11:29;;;;;;;13.40;12.50;;;28.00;40.30;;;;;;6212277;23;20419;-76
2022/04/12 11:14:17;;;;;;;14.33;13.60;;;28.10;40.40;;;;;;6212715;23;20391;-75
2022/04/12 11:16:50;;;;;;;14.53;13.37;;;27.80;40.40;;;;;;6212048;23;20405;-76
2022/04/12 11:19:21;;;;;;;14.67;13.50;;;27.70;40.70;;;;;;6212451;23;20400;-75
2022/04/12 11:22:00;;;;;;;14.27;13.50;;;27.70;41.10;;;;;;6214199;23;20938;-76
2022/04/12 11:24:27;;;;;;;15.23;14.07;;;28.40;39.60;;;;;;6214552;23;20451;-74
2022/04/12 11:27:10;;;;;;;14.77;13.97;;;28.20;40.30;;;;;;6214751;23;20419;-75
2022/04/12 11:29:38;;;;;;;14.23;13.30;;;28.20;39.80;;;;;;6214140;23;20412;-76
2022/04/12 11:32:08;;;;;;;13.37;12.67;;;27.90;40.70;;;;;;6214555;23;20412;-76
2022/04/12 11:34:37;;;;;;;14.33;13.57;;;27.70;40.60;;;;;;6214483;23;20412;-75
2022/04/12 11:37:05;;;;;;;14.57;13.60;;;27.60;40.70;;;;;;6214412;23;20405;-75
2022/04/12 11:39:35;;;;;;;15.13;14.23;;;27.40;41.30;;;;;;6214251;23;20653;-75
2022/04/12 11:42:04;;;;;;;13.90;12.97;;;27.50;41.30;;;;;;6214048;23;20557;-75
2022/04/12 11:44:31;;;;;;;13.80;12.70;;;27.70;40.90;;;;;;6213322;23;20974;-75
2022/04/12 11:47:01;;;;;;;13.00;12.43;;;27.60;40.90;;;;;;6213406;23;20554;-75
2022/04/12 11:49:31;;;;;;;13.87;13.13;;;27.00;41.10;;;;;;6213857;23;20905;-75
2022/04/12 11:51:59;;;;;;;13.47;12.60;;;27.00;41.70;;;;;;6214183;23;20420;-75
2022/04/12 11:54:28;;;;;;;13.70;12.80;;;27.10;41.40;;;;;;6214289;23;20463;-75
2022/04/12 11:57:06;;;;;;;14.33;12.63;;;26.90;41.50;;;;;;6214358;23;20405;-74
2022/04/12 11:59:34;;;;;;;12.63;11.93;;;27.00;41.90;;;;;;6214202;23;20423;-74
2022/04/12 12:02:02;;;;;;;12.33;11.87;;;26.90;42.00;;;;;;6213676;23;20417;-75
2022/04/12 12:04:32;;;;;;;12.90;12.23;;;26.60;42.10;;;;;;6213741;23;20440;-75
2022/04/12 12:07:01;;;;;;;13.13;12.53;;;26.50;42.20;;;;;;6213901;23;20411;-75
2022/04/12 12:09:29;;;;;;;11.80;11.20;;;26.60;42.40;;;;;;6213932;23;20408;-76
2022/04/12 12:12:00;;;;;;;12.93;12.33;;;26.10;42.70;;;;;;6214224;23;20416;-75
2022/04/12 12:14:29;;;;;;;13.40;12.50;;;26.10;43.00;;;;;;6214513;23;20395;-76
2022/04/12 12:17:04;;;;;;;12.37;11.87;;;26.20;43.20;;;;;;6214341;23;20408;-74
2022/04/12 12:19:33;;;;;;;13.00;12.30;;;26.60;43.00;;;;;;6213994;23;20409;-76
2022/04/12 12:22:02;;;;;;;12.00;11.50;;;27.00;42.60;;;;;;6213836;23;20415;-74
2022/04/12 12:24:29;;;;;;;13.57;12.77;;;27.20;41.70;;;;;;6214005;23;20452;-76
2022/04/12 12:26:56;;;;;;;13.10;12.40;;;26.60;42.50;;;;;;6214355;23;20409;-76
2022/04/12 12:29:23;;;;;;;12.70;12.20;;;27.00;42.60;;;;;;6213872;23;20420;-75
2022/04/12 12:32:18;;;;;;;13.67;12.53;;;27.60;41.60;;;;;;6211208;23;20432;-75
2022/04/12 12:34:46;;;;;;;13.57;12.87;;;28.10;41.40;;;;;;6213509;23;20408;-74
2022/04/12 12:37:13;;;;;;;13.67;13.03;;;28.40;40.00;;;;;;6213530;23;20409;-75
2022/04/12 12:39:41;;;;;;;12.97;12.27;;;28.70;40.00;;;;;;6213812;23;20723;-75
2022/04/12 12:42:08;;;;;;;12.13;11.63;;;28.70;38.80;;;;;;6213974;23;20431;-75
2022/04/12 12:44:36;;;;;;;12.57;12.00;;;27.90;39.70;;;;;;6213380;23;20763;-75
2022/04/12 12:47:04;;;;;;;12.50;11.90;;;27.60;40.20;;;;;;6213210;23;20437;-76
2022/04/12 12:49:39;;;;;;;12.53;12.03;;;26.80;40.70;;;;;;6213512;23;20486;-76
2022/04/12 12:52:09;;;;;;;12.07;11.57;;;26.40;41.50;;;;;;6213344;23;20736;-76
2022/04/12 12:54:36;;;;;;;12.17;11.67;;;26.60;41.40;;;;;;6213420;23;20412;-76
2022/04/12 12:57:05;;;;;;;12.00;11.50;;;27.10;41.30;;;;;;6213399;23;20409;-75
2022/04/12 12:59:34;;;;;;;11.77;11.23;;;27.60;40.30;;;;;;6213333;23;20413;-76
2022/04/12 13:02:09;;;;;;;12.47;11.87;;;27.50;40.00;;;;;;6213460;23;20413;-75
2022/04/12 13:04:38;;;;;;;12.37;11.87;;;27.10;39.30;;;;;;6212960;23;20428;-76
2022/04/12 13:07:08;;;;;;;13.83;13.13;;;27.10;40.00;;;;;;6213233;23;20413;-75
2022/04/12 13:09:41;;;;;;;11.67;10.83;;;27.00;40.30;;;;;;6213345;23;20428;-75
2022/04/12 13:12:08;;;;;;;12.33;11.73;;;27.20;39.90;;;;;;6213401;23;20393;-75
2022/04/12 13:14:35;;;;;;;11.93;11.40;;;27.30;39.60;;;;;;6212730;23;20907;-75
2022/04/12 13:17:02;;;;;;;11.80;11.40;;;27.80;39.90;;;;;;6212743;23;20416;-75
2022/04/12 13:19:30;;;;;;;12.03;11.47;;;27.50;39.80;;;;;;6213077;23;20813;-75
2022/04/12 13:21:58;;;;;;;12.57;11.90;;;27.10;40.20;;;;;;6213263;23;20420;-76
2022/04/12 13:24:26;;;;;;;12.53;12.03;;;26.90;39.80;;;;;;6213197;23;20462;-76
2022/04/12 13:26:54;;;;;;;11.27;10.87;;;27.10;39.70;;;;;;6212587;23;20734;-75
2022/04/12 13:29:22;;;;;;;11.63;11.13;;;27.10;39.50;;;;;;6212494;23;20503;-73
2022/04/12 13:31:49;;;;;;;11.60;11.20;;;26.90;39.50;;;;;;6212220;23;20419;-76
2022/04/12 13:34:15;;;;;;;11.90;11.30;;;26.90;39.40;;;;;;6212255;23;20420;-76
2022/04/12 13:36:43;;;;;;;11.40;11.00;;;27.30;39.30;;;;;;6212655;23;20427;-75
2022/04/12 13:39:10;;;;;;;11.83;11.33;;;27.40;39.60;;;;;;6212648;23;20420;-75
2022/04/12 13:41:39;;;;;;;11.17;10.67;;;27.30;39.20;;;;;;6212901;23;20411;-75
2022/04/12 13:44:07;;;;;;;10.10;9.70;;;27.00;38.80;;;;;;6212033;23;20551;-75
2022/04/12 13:46:34;;;;;;;12.07;11.47;;;27.10;38.80;;;;;;6212323;23;20797;-75
2022/04/12 13:49:00;;;;;;;10.93;10.53;;;27.20;38.80;;;;;;6211979;23;20783;-76
2022/04/12 13:51:28;;;;;;;11.50;11.00;;;27.20;39.40;;;;;;6212918;23;20746;-73
2022/04/12 13:53:54;;;;;;;11.80;11.30;;;26.60;39.60;;;;;;6212836;23;20432;-75
2022/04/12 13:56:21;;;;;;;10.67;10.10;;;26.40;40.10;;;;;;6212729;23;20404;-74
2022/04/12 13:58:49;;;;;;;11.57;11.07;;;26.50;39.70;;;;;;6212423;23;20432;-75
2022/04/12 14:01:16;;;;;;;11.87;11.20;;;26.20;40.10;;;;;;6212574;23;20735;-75
2022/04/12 14:03:43;;;;;;;11.30;10.90;;;26.20;39.50;;;;;;6212436;23;20444;-75
2022/04/12 14:06:10;;;;;;;11.80;11.23;;;26.40;39.20;;;;;;6212138;23;20416;-74
2022/04/12 14:08:37;;;;;;;11.93;11.40;;;26.20;40.20;;;;;;6212777;23;20409;-75
2022/04/12 14:11:06;;;;;;;11.33;10.87;;;25.90;40.80;;;;;;6212228;23;20405;-75
2022/04/12 14:13:33;;;;;;;11.50;11.10;;;25.60;40.60;;;;;;6212297;23;20522;-75
2022/04/12 14:16:01;;;;;;;11.10;10.60;;;25.40;40.60;;;;;;6211859;23;20809;-75
2022/04/12 14:18:28;;;;;;;11.37;10.80;;;25.40;40.80;;;;;;6212608;23;20411;-74
2022/04/12 14:20:54;;;;;;;11.97;10.93;;;25.30;41.50;;;;;;6212563;23;20423;-74
2022/04/12 14:23:21;;;;;;;13.23;12.43;;;25.30;41.20;;;;;;6212724;23;20412;-74
2022/04/12 14:25:48;;;;;;;12.77;11.97;;;25.40;41.50;;;;;;6211708;23;20408;-75
2022/04/12 14:28:14;;;;;;;11.23;10.73;;;25.30;42.30;;;;;;6212375;23;20775;-75
2022/04/12 14:30:41;;;;;;;11.90;11.40;;;25.60;42.00;;;;;;6212277;23;20413;-73
2022/04/12 14:33:10;;;;;;;12.37;11.50;;;25.50;41.10;;;;;;6212466;23;20405;-75
2022/04/12 14:35:36;;;;;;;11.27;10.83;;;25.20;41.30;;;;;;6211563;23;20745;-74
2022/04/12 14:38:03;;;;;;;11.87;11.37;;;25.10;41.50;;;;;;6212082;23;20408;-74
2022/04/12 14:40:31;;;;;;;10.80;10.20;;;25.00;42.10;;;;;;6212315;23;20412;-73
2022/04/12 14:42:58;;;;;;;11.60;11.10;;;24.90;42.10;;;;;;6212181;23;20758;-73
2022/04/12 14:45:25;;;;;;;11.47;11.07;;;24.80;41.60;;;;;;6212335;23;20445;-75
2022/04/12 14:47:52;;;;;;;11.87;11.37;;;24.90;42.00;;;;;;6211801;23;20495;-74
2022/04/12 14:50:20;;;;;;;10.73;10.13;;;25.00;41.50;;;;;;6212274;23;20408;-74
2022/04/12 14:52:47;;;;;;;11.83;11.23;;;25.10;42.00;;;;;;6211920;23;20416;-74
2022/04/12 14:55:14;;;;;;;13.73;11.93;;;25.10;42.80;;;;;;6212050;23;20416;-74
2022/04/12 14:57:41;;;;;;;11.50;10.80;;;25.20;42.30;;;;;;6212131;23;20404;-74
2022/04/12 15:00:09;;;;;;;11.23;10.73;;;25.00;41.80;;;;;;6212093;23;20409;-74
2022/04/12 15:02:36;;;;;;;11.00;10.60;;;24.90;42.50;;;;;;6211698;23;20902;-74
2022/04/12 15:05:03;;;;;;;11.27;10.63;;;25.00;42.20;;;;;;6211658;23;20656;-74
2022/04/12 15:07:31;;;;;;;10.70;10.40;;;24.80;42.30;;;;;;6211885;23;20416;-75
2022/04/12 15:09:58;;;;;;;10.83;10.43;;;24.90;42.90;;;;;;6212377;23;20436;-76
2022/04/12 15:12:25;;;;;;;11.43;10.93;;;25.00;42.70;;;;;;6211872;23;20885;-74
2022/04/12 15:14:52;;;;;;;11.63;11.10;;;25.00;42.60;;;;;;6211193;23;20412;-74
2022/04/12 15:17:19;;;;;;;11.50;10.93;;;25.00;42.80;;;;;;6211867;23;20620;-74
2022/04/12 15:19:45;;;;;;;11.27;10.70;;;24.80;43.10;;;;;;6211546;23;20408;-74
2022/04/12 15:22:12;;;;;;;11.40;10.97;;;24.70;43.30;;;;;;6212018;23;20762;-73
2022/04/12 15:24:40;;;;;;;11.60;11.20;;;24.50;43.60;;;;;;6211857;23;20527;-74
2022/04/12 15:27:07;;;;;;;12.10;11.43;;;24.60;43.90;;;;;;6211683;23;20415;-75
2022/04/12 15:29:34;;;;;;;11.60;11.10;;;24.60;43.40;;;;;;6211739;23;20692;-74
2022/04/12 15:32:00;;;;;;;11.93;11.40;;;24.40;43.90;;;;;;6211954;23;20409;-74
2022/04/12 15:34:27;;;;;;;11.33;10.73;;;24.30;44.40;;;;;;6211382;23;20478;-73
2022/04/12 15:36:53;;;;;;;11.30;10.87;;;24.30;44.50;;;;;;6211736;23;20463;-74
2022/04/12 15:39:24;;;;;;;11.40;10.97;;;24.20;44.30;;;;;;6211499;23;20409;-75
2022/04/12 15:41:53;;;;;;;11.37;10.97;;;24.10;44.40;;;;;;6211483;23;20853;-74
2022/04/12 15:44:19;;;;;;;12.13;11.63;;;23.90;44.70;;;;;;6211664;23;20452;-73
2022/04/12 15:46:46;;;;;;;11.40;10.90;;;23.80;45.00;;;;;;6211538;23;20440;-74
2022/04/12 15:49:13;;;;;;;11.27;10.70;;;23.80;45.10;;;;;;6211621;23;20412;-74
2022/04/12 15:51:40;;;;;;;11.63;11.13;;;23.80;45.50;;;;;;6212002;23;20409;-74
2022/04/12 15:54:08;;;;;;;11.27;10.67;;;23.80;45.80;;;;;;6212021;23;20439;-74
2022/04/12 15:56:34;;;;;;;10.87;10.37;;;23.70;45.80;;;;;;6211578;23;20911;-74
2022/04/12 15:59:03;;;;;;;11.30;10.90;;;23.60;46.10;;;;;;6211768;23;20413;-75
2022/04/12 16:01:30;;;;;;;10.40;10.00;;;23.40;46.70;;;;;;6211893;23;20467;-74
2022/04/12 16:03:57;;;;;;;12.20;11.60;;;23.30;46.80;;;;;;6211899;23;20728;-74
2022/04/12 16:06:25;;;;;;;11.30;10.80;;;23.20;47.40;;;;;;6213284;23;20404;-74
2022/04/12 16:08:52;;;;;;;11.17;10.53;;;23.10;47.30;;;;;;6213774;23;20416;-74
2022/04/12 16:11:19;;;;;;;11.47;10.67;;;23.00;47.90;;;;;;6213506;23;20412;-73
2022/04/12 16:13:46;;;;;;;11.10;10.60;;;23.10;47.90;;;;;;6213362;23;20467;-72
2022/04/12 16:16:14;;;;;;;11.40;10.90;;;23.10;48.60;;;;;;6213608;23;20405;-75
2022/04/12 16:18:41;;;;;;;12.30;11.60;;;23.00;49.00;;;;;;6213844;23;20413;-74
2022/04/12 16:21:07;;;;;;;12.30;11.60;;;22.90;49.40;;;;;;6214070;23;20415;-74
2022/04/12 16:23:34;;;;;;;12.17;11.40;;;22.90;50.50;;;;;;6213672;23;20721;-74
2022/04/12 16:26:01;;;;;;;11.20;10.70;;;22.80;50.50;;;;;;6213000;23;20451;-74
2022/04/12 16:28:28;;;;;;;12.00;11.40;;;22.80;51.20;;;;;;6213378;23;20404;-73
2022/04/12 16:30:55;;;;;;;12.43;11.67;;;22.80;51.70;;;;;;6213579;23;20416;-73
2022/04/12 16:33:23;;;;;;;12.27;11.73;;;22.80;52.00;;;;;;6213174;23;20413;-73
2022/04/12 16:35:49;;;;;;;12.50;11.90;;;22.80;52.40;;;;;;6213293;23;20733;-73
2022/04/12 16:38:16;;;;;;;13.10;12.43;;;22.80;52.40;;;;;;6212971;23;20408;-73
2022/04/12 16:40:43;;;;;;;11.30;10.80;;;22.70;52.90;;;;;;6213912;23;20417;-73
2022/04/12 16:43:10;;;;;;;12.33;11.57;;;22.60;53.60;;;;;;6213650;23;20429;-73
2022/04/12 16:45:37;;;;;;;13.50;12.80;;;22.60;53.20;;;;;;6212687;23;20534;-74
2022/04/12 16:48:04;;;;;;;13.67;12.73;;;22.40;53.20;;;;;;6213143;23;20400;-74
2022/04/12 16:50:32;;;;;;;13.30;12.60;;;22.30;53.50;;;;;;6213536;23;20413;-72
2022/04/12 16:52:59;;;;;;;13.20;12.50;;;22.30;54.20;;;;;;6213737;23;20423;-74
2022/04/12 16:55:26;;;;;;;13.70;12.93;;;22.30;54.40;;;;;;6213506;23;20409;-73
2022/04/12 16:57:53;;;;;;;13.30;12.50;;;22.10;54.90;;;;;;6211578;23;20443;-74
2022/04/12 17:00:21;;;;;;;13.20;12.20;;;22.00;55.20;;;;;;6213074;23;20419;-74
2022/04/12 17:02:48;;;;;;;12.33;11.60;;;22.00;55.60;;;;;;6212491;23;20808;-72
2022/04/12 17:05:15;;;;;;;13.07;12.40;;;21.90;55.70;;;;;;6212435;23;20440;-73
2022/04/12 17:07:44;;;;;;;13.43;12.63;;;21.90;56.20;;;;;;6212797;23;20447;-73
2022/04/12 17:10:11;;;;;;;13.67;12.87;;;21.80;56.20;;;;;;6212806;23;20408;-72
2022/04/12 17:12:38;;;;;;;14.20;13.17;;;21.90;57.20;;;;;;6212319;23;20897;-73
2022/04/12 17:15:05;;;;;;;13.27;12.60;;;21.80;56.90;;;;;;6212712;23;20467;-72
2022/04/12 17:17:32;;;;;;;12.20;11.60;;;21.70;57.30;;;;;;6211732;23;20412;-73